Time;durP1;ratioP1;P1;durP2;ratioP2;P2;SDS_P1;SDS_P2;PMS_P1;PMS_P2;Temp;Humidity;BMP_temperature;BMP_pressure;BME280_temperature;BME280_humidity;BME280_pressure;Samples;Min_cycle;Max_cycle;Signal;HPM_P1;HPM_P2
2022/09/15 00:02:57;;;;;;;1999.90;999.90;;;15.00;99.90;;;;;;6750262;88;20195;-77
2022/09/15 00:12:57;;;;;;;1999.90;999.90;;;14.90;99.90;;;;;;6749310;87;20189;-77
2022/09/15 00:22:58;;;;;;;1999.90;999.90;;;14.90;99.90;;;;;;6748743;87;20721;-76
2022/09/15 00:32:58;;;;;;;1999.90;999.90;;;14.90;99.90;;;;;;6750131;88;20306;-77
2022/09/15 00:42:59;;;;;;;1999.90;999.90;;;15.00;99.90;;;;;;6746794;87;20228;-77
2022/09/15 00:53:04;;;;;;;1999.90;999.90;;;14.90;99.90;;;;;;6749563;88;20336;-77
2022/09/15 01:03:05;;;;;;;1999.90;999.90;;;14.80;99.90;;;;;;6747721;88;20169;-76
2022/09/15 01:13:09;;;;;;;1999.90;999.90;;;14.70;99.90;;;;;;6748041;88;20872;-77
2022/09/15 01:23:57;;;;;;;1999.90;999.90;;;14.80;99.90;;;;;;6743436;87;20230;-77
2022/09/15 01:34:04;;;;;;;1999.90;999.90;;;14.80;99.90;;;;;;6746648;88;20296;-77
2022/09/15 01:44:13;;;;;;;1999.90;999.90;;;14.70;99.90;;;;;;6749078;88;20173;-77
2022/09/15 01:54:18;;;;;;;1999.90;999.90;;;14.70;99.90;;;;;;6755410;88;20322;-77
2022/09/15 02:04:40;;;;;;;1999.90;999.90;;;14.70;99.90;;;;;;6746891;87;20683;-77
2022/09/15 02:15:04;;;;;;;1999.90;999.90;;;14.70;99.90;;;;;;6747932;88;20189;-76
2022/09/15 02:25:10;;;;;;;1999.90;999.90;;;14.70;99.90;;;;;;6749449;87;20612;-77
2022/09/15 02:35:12;;;;;;;1999.90;999.90;;;14.70;99.90;;;;;;6750131;87;20204;-76
2022/09/15 02:45:13;;;;;;;1999.90;999.90;;;14.80;99.90;;;;;;6750107;87;20687;-77
2022/09/15 02:55:14;;;;;;;1999.90;999.90;;;14.70;99.90;;;;;;6750406;87;20562;-77
2022/09/15 03:05:18;;;;;;;1999.90;999.90;;;14.70;99.90;;;;;;6748695;87;20420;-77
2022/09/15 03:15:22;;;;;;;1999.90;999.90;;;14.80;99.90;;;;;;6749069;87;20268;-76
2022/09/15 03:25:25;;;;;;;1999.90;999.90;;;14.80;99.90;;;;;;6748358;87;20245;-77
2022/09/15 03:35:26;;;;;;;1999.90;999.90;;;14.70;99.90;;;;;;6749461;87;20183;-77
2022/09/15 03:45:26;;;;;;;1999.90;999.90;;;14.70;99.90;;;;;;6750073;87;20193;-77
2022/09/15 03:55:27;;;;;;;1999.90;999.90;;;14.80;99.90;;;;;;6748560;87;20318;-76
2022/09/15 04:05:28;;;;;;;1999.90;999.90;;;14.70;99.90;;;;;;6747282;87;20177;-76
2022/09/15 04:15:29;;;;;;;1999.90;999.90;;;14.50;99.90;;;;;;6757509;88;20704;-76
2022/09/15 04:25:29;;;;;;;1999.90;999.90;;;14.30;99.90;;;;;;6754262;88;20193;-76
2022/09/15 04:35:30;;;;;;;1999.90;999.90;;;14.20;99.90;;;;;;6749283;87;20701;-76
2022/09/15 04:45:32;;;;;;;1999.90;999.90;;;14.10;99.90;;;;;;6755842;87;20216;-76
2022/09/15 04:55:33;;;;;;;1999.90;999.90;;;14.10;99.90;;;;;;6745403;87;20627;-75
2022/09/15 05:05:33;;;;;;;1999.90;999.90;;;14.00;99.90;;;;;;6748574;87;20257;-76
2022/09/15 05:15:34;;;;;;;1999.90;999.90;;;14.00;99.90;;;;;;6745357;88;20308;-76
2022/09/15 05:25:34;;;;;;;1999.90;999.90;;;13.90;99.90;;;;;;6747108;88;20242;-76
2022/09/15 05:35:35;;;;;;;1999.90;999.90;;;13.90;99.90;;;;;;6748931;87;20555;-75
2022/09/15 05:45:36;;;;;;;1999.90;999.90;;;13.80;99.90;;;;;;6749701;87;20383;-77
2022/09/15 05:55:37;;;;;;;1999.90;999.90;;;13.80;99.90;;;;;;6741170;88;20233;-77
2022/09/15 06:05:37;;;;;;;1999.90;999.90;;;14.00;99.90;;;;;;6744868;87;20712;-76
2022/09/15 06:15:38;;;;;;;1999.90;999.90;;;14.20;99.90;;;;;;6747280;87;20585;-77
2022/09/15 06:25:38;;;;;;;1999.90;999.90;;;14.20;99.90;;;;;;6744267;87;20203;-75
2022/09/15 06:35:39;;;;;;;1999.90;999.90;;;14.30;99.90;;;;;;6747539;87;20192;-75
2022/09/15 06:45:39;;;;;;;1999.90;999.90;;;14.70;99.90;;;;;;6750133;88;20196;-75
2022/09/15 06:55:40;;;;;;;1999.90;999.90;;;14.70;99.90;;;;;;6751536;88;20184;-75
2022/09/15 07:05:42;;;;;;;1999.90;999.90;;;14.60;99.90;;;;;;6753268;87;20368;-74
2022/09/15 07:15:51;;;;;;;1999.90;999.90;;;14.80;99.90;;;;;;6753955;87;20244;-75
2022/09/15 07:26:03;;;;;;;1999.90;999.90;;;15.00;99.90;;;;;;6679522;87;20822;-75
2022/09/15 07:36:05;;;;;;;1999.90;999.90;;;15.30;99.90;;;;;;6675364;88;20209;-75
2022/09/15 07:46:06;;;;;;;1999.90;999.90;;;15.20;99.90;;;;;;6677273;89;20281;-75
2022/09/15 07:56:06;;;;;;;1999.90;999.90;;;15.40;99.90;;;;;;6670322;88;20355;-75
2022/09/15 08:06:08;;;;;;;1999.90;999.90;;;15.40;99.90;;;;;;6675796;88;20658;-75
2022/09/15 08:16:18;;;;;;;1999.90;999.90;;;15.80;99.90;;;;;;6670250;89;20630;-75
2022/09/15 08:26:22;;;;;;;1999.90;999.90;;;16.40;99.90;;;;;;6746776;87;20258;-75
2022/09/15 08:36:26;;;;;;;1999.90;999.90;;;16.70;99.90;;;;;;6748596;87;20253;-74
2022/09/15 08:46:41;;;;;;;1999.90;999.90;;;16.80;99.90;;;;;;6750174;87;20185;-76
2022/09/15 08:56:42;;;;;;;1999.90;999.90;;;17.10;99.90;;;;;;6747759;88;20256;-76
2022/09/15 09:07:21;;;;;;;1999.90;999.90;;;17.50;99.90;;;;;;6747094;87;20232;-76
2022/09/15 09:18:03;;;;;;;1999.90;999.90;;;18.40;99.90;;;;;;6747362;87;20616;-75
2022/09/15 09:28:22;;;;;;;1999.90;999.90;;;18.00;99.90;;;;;;6669503;88;20657;-75
2022/09/15 09:38:34;;;;;;;1999.90;999.90;;;18.30;99.90;;;;;;6663665;89;20343;-76
2022/09/15 09:48:45;;;;;;;1999.90;999.90;;;18.00;99.90;;;;;;6663809;89;20210;-75
2022/09/15 09:58:48;;;;;;;1999.90;999.90;;;18.50;99.90;;;;;;6666201;89;20190;-76
2022/09/15 10:09:04;;;;;;;1999.90;999.90;;;18.50;99.90;;;;;;6663845;88;20196;-76
2022/09/15 10:19:12;;;;;;;1999.90;999.90;;;18.70;99.90;;;;;;6665438;87;20192;-76
2022/09/15 10:29:24;;;;;;;1999.90;999.90;;;18.50;99.90;;;;;;6751384;87;20198;-75
2022/09/15 10:39:52;;;;;;;1999.90;999.90;;;18.70;99.90;;;;;;6753618;88;20176;-75
2022/09/15 10:50:27;;;;;;;1999.90;999.90;;;18.70;99.90;;;;;;6753680;87;20290;-75
2022/09/15 11:00:43;;;;;;;1999.90;999.90;;;19.50;99.90;;;;;;6753003;87;20204;-75
2022/09/15 11:11:24;;;;;;;1999.90;999.90;;;20.00;99.90;;;;;;6756206;87;20194;-75
2022/09/15 11:21:34;;;;;;;1999.90;999.90;;;20.00;99.90;;;;;;6737231;88;20317;-76
2022/09/15 11:31:41;;;;;;;1999.90;999.90;;;20.30;99.90;;;;;;6750539;88;20184;-76
2022/09/15 11:41:55;;;;;;;1999.90;999.90;;;19.90;99.90;;;;;;6750678;87;20220;-76
2022/09/15 11:52:21;;;;;;;1999.90;999.90;;;19.70;99.90;;;;;;6748948;88;20678;-77
2022/09/15 12:02:29;;;;;;;1999.90;999.90;;;19.40;99.90;;;;;;6743004;88;20303;-76
2022/09/15 12:12:31;;;;;;;1999.90;999.90;;;19.90;99.90;;;;;;6742977;87;20184;-76
2022/09/15 12:22:55;;;;;;;1999.90;999.90;;;19.60;99.90;;;;;;6745922;87;20717;-78
2022/09/15 12:32:55;;;;;;;1999.90;999.90;;;19.80;99.90;;;;;;6748055;87;20185;-77
2022/09/15 12:42:56;;;;;;;1999.90;999.90;;;19.90;99.90;;;;;;6747382;87;20219;-76
2022/09/15 12:53:02;;;;;;;1999.90;999.90;;;20.00;99.90;;;;;;6749278;88;20653;-77
2022/09/15 13:03:06;;;;;;;1999.90;999.90;;;20.00;99.90;;;;;;6750466;87;20957;-77
2022/09/15 13:13:19;;;;;;;1999.90;999.90;;;19.80;99.90;;;;;;6749290;88;20407;-77
2022/09/15 13:23:23;;;;;;;1999.90;999.90;;;19.80;99.90;;;;;;6748545;88;20238;-78
2022/09/15 13:34:15;;;;;;;1999.90;999.90;;;21.00;99.90;;;;;;6748372;87;20261;-77
2022/09/15 13:44:54;;;;;;;1999.90;999.90;;;21.60;99.90;;;;;;6742145;88;20301;-76
2022/09/15 13:55:13;;;;;;;1999.90;999.90;;;21.60;99.90;;;;;;6750911;87;20188;-77
2022/09/15 14:05:15;;;;;;;1999.90;999.90;;;20.90;99.90;;;;;;6745002;88;20234;-77
2022/09/15 14:15:24;;;;;;;1999.90;999.90;;;20.40;99.90;;;;;;6747851;88;20197;-78
2022/09/15 14:25:26;;;;;;;1999.90;999.90;;;20.10;99.90;;;;;;6749466;88;20207;-76
2022/09/15 14:35:35;;;;;;;1999.90;999.90;;;19.90;99.90;;;;;;6755115;87;20181;-75
2022/09/15 14:45:41;;;;;;;1999.90;999.90;;;19.70;99.90;;;;;;6749156;87;20378;-75
2022/09/15 14:55:49;;;;;;;1999.90;999.90;;;19.50;99.90;;;;;;6738576;87;20287;-75
2022/09/15 15:05:58;;;;;;;1999.90;999.90;;;19.30;99.90;;;;;;6748894;87;20192;-76
2022/09/15 15:15:59;;;;;;;1999.90;999.90;;;18.80;99.90;;;;;;6751144;88;20161;-74
2022/09/15 15:26:34;;;;;;;1999.90;999.90;;;18.40;99.90;;;;;;6748324;87;20598;-79
2022/09/15 15:36:35;;;;;;;1999.90;999.90;;;17.90;99.90;;;;;;6744581;88;21076;-75
2022/09/15 15:47:00;;;;;;;1999.90;999.90;;;17.30;99.90;;;;;;6748890;88;20188;-76
2022/09/15 15:57:31;;;;;;;1999.90;999.90;;;16.80;99.90;;;;;;6748659;88;20181;-77
2022/09/15 16:07:32;;;;;;;1999.90;999.90;;;16.80;99.90;;;;;;6751050;88;20753;-78
2022/09/15 16:17:33;;;;;;;1999.90;999.90;;;16.80;99.90;;;;;;6753292;88;20206;-78
2022/09/15 16:27:33;;;;;;;1999.90;999.90;;;16.90;99.90;;;;;;6750687;88;20674;-77
2022/09/15 16:37:34;;;;;;;1999.90;999.90;;;16.80;99.90;;;;;;6749264;88;20660;-77
2022/09/15 16:47:34;;;;;;;1999.90;999.90;;;16.90;99.90;;;;;;6751886;88;20735;-77
2022/09/15 16:57:35;;;;;;;1999.90;999.90;;;16.70;99.90;;;;;;6751171;88;20685;-76
2022/09/15 17:07:35;;;;;;;1999.90;999.90;;;16.60;99.90;;;;;;6751004;88;20692;-78
2022/09/15 17:17:36;;;;;;;1999.90;999.90;;;16.40;99.90;;;;;;6732603;88;20780;-76
2022/09/15 17:27:36;;;;;;;1999.90;999.90;;;16.40;99.90;;;;;;6734171;88;20220;-76
2022/09/15 17:37:37;;;;;;;1999.90;999.90;;;16.30;99.90;;;;;;6748103;77;20237;-72
2022/09/15 17:47:37;;;;;;;1999.90;999.90;;;16.20;99.90;;;;;;6741596;87;20493;-73
2022/09/15 17:57:38;;;;;;;1999.90;999.90;;;16.20;99.90;;;;;;6734897;88;20217;-74
2022/09/15 18:07:38;;;;;;;1999.90;999.90;;;16.10;99.90;;;;;;6741092;88;20172;-72
2022/09/15 18:17:39;;;;;;;1999.90;999.90;;;16.10;99.90;;;;;;6738471;87;20188;-75
2022/09/15 18:27:40;;;;;;;1999.90;999.90;;;15.90;99.90;;;;;;6737640;88;20268;-74
2022/09/15 18:37:41;;;;;;;1999.90;999.90;;;15.90;99.90;;;;;;6700527;87;20254;-73
2022/09/15 18:47:45;;;;;;;1999.90;999.90;;;15.90;99.90;;;;;;6671325;88;20184;-72
2022/09/15 18:57:47;;;;;;;1999.90;999.90;;;15.90;99.90;;;;;;6672090;88;20249;-74
2022/09/15 19:07:47;;;;;;;1999.90;999.90;;;15.90;99.90;;;;;;6673977;88;20647;-75
2022/09/15 19:17:48;;;;;;;1999.90;999.90;;;15.90;99.90;;;;;;6667063;89;20215;-74
2022/09/15 19:27:49;;;;;;;1999.90;999.90;;;16.00;99.90;;;;;;6674269;88;20682;-75
2022/09/15 19:37:50;;;;;;;1999.90;999.90;;;15.90;99.90;;;;;;6673863;88;20341;-75
2022/09/15 19:47:50;;;;;;;1999.90;999.90;;;15.80;99.90;;;;;;6679186;87;20215;-74
2022/09/15 19:57:51;;;;;;;1999.90;999.90;;;15.80;99.90;;;;;;6671801;87;20208;-73
2022/09/15 20:07:52;;;;;;;1999.90;999.90;;;15.70;99.90;;;;;;6678771;87;20179;-74
2022/09/15 20:17:52;;;;;;;1999.90;999.90;;;15.60;99.90;;;;;;6671029;87;20562;-73
2022/09/15 20:27:53;;;;;;;1999.90;999.90;;;15.70;99.90;;;;;;6673347;87;20318;-73
2022/09/15 20:37:53;;;;;;;1999.90;999.90;;;15.50;99.90;;;;;;6685930;87;20187;-72
2022/09/15 20:47:54;;;;;;;1999.90;999.90;;;15.40;99.90;;;;;;6665829;89;20623;-75
2022/09/15 20:57:54;;;;;;;1999.90;999.90;;;15.30;99.90;;;;;;6675149;87;20207;-74
2022/09/15 21:07:55;;;;;;;1999.90;999.90;;;15.20;99.90;;;;;;6672870;88;20222;-74
2022/09/15 21:17:55;;;;;;;1999.90;999.90;;;15.10;99.90;;;;;;6678452;87;20347;-75
2022/09/15 21:27:56;;;;;;;1999.90;999.90;;;15.10;99.90;;;;;;6683131;88;20203;-73
2022/09/15 21:37:57;;;;;;;1999.90;999.90;;;15.00;99.90;;;;;;6668352;88;20255;-73
2022/09/15 21:47:58;;;;;;;1999.90;999.90;;;14.90;99.90;;;;;;6667809;87;20181;-73
2022/09/15 21:57:59;;;;;;;1999.90;999.90;;;14.90;99.90;;;;;;6682738;88;20203;-73
2022/09/15 22:07:59;;;;;;;1999.90;999.90;;;14.80;99.90;;;;;;6668247;89;20197;-72
2022/09/15 22:18:00;;;;;;;1999.90;999.90;;;14.80;99.90;;;;;;6668879;89;20248;-73
2022/09/15 22:28:01;;;;;;;1999.90;999.90;;;14.80;99.90;;;;;;6675976;88;20271;-73
2022/09/15 22:38:02;;;;;;;1999.90;999.90;;;14.70;99.90;;;;;;6672443;89;20196;-73
2022/09/15 22:48:02;;;;;;;1999.90;999.90;;;14.70;99.90;;;;;;6671593;87;20261;-73
2022/09/15 22:58:03;;;;;;;1999.90;999.90;;;14.70;99.90;;;;;;6673926;87;20209;-71
2022/09/15 23:08:03;;;;;;;1999.90;999.90;;;14.70;99.90;;;;;;6670169;87;20183;-72
2022/09/15 23:18:04;;;;;;;1999.90;999.90;;;14.60;99.90;;;;;;6676116;87;20233;-73
2022/09/15 23:28:04;;;;;;;1999.90;999.90;;;14.60;99.90;;;;;;6673679;87;20228;-73
2022/09/15 23:38:05;;;;;;;1999.90;999.90;;;14.60;99.90;;;;;;6713458;78;20377;-77
2022/09/15 23:48:07;;;;;;;1999.90;999.90;;;14.60;99.90;;;;;;6735704;88;20219;-77
2022/09/15 23:58:08;;;;;;;1999.90;999.90;;;14.50;99.90;;;;;;6736435;88;20250;-77
